createdAt,value
2023-01-13T00:03:49.242Z,0.04
2023-01-13T00:08:48.323Z,0.04
2023-01-13T00:13:48.400Z,0.04
2023-01-13T00:18:45.785Z,0.04
2023-01-13T00:23:45.461Z,0.04
2023-01-13T00:28:45.174Z,0.04
2023-01-13T00:33:46.838Z,0.04
2023-01-13T00:38:43.114Z,0.04
2023-01-13T00:43:43.330Z,0.04
2023-01-13T00:48:42.947Z,0.04
2023-01-13T00:53:42.797Z,0.04
2023-01-13T00:58:39.786Z,0.04
2023-01-13T01:00:00.726Z,0.04
2023-01-13T01:05:00.801Z,0.04
2023-01-13T01:10:00.159Z,0.04
2023-01-13T01:14:59.311Z,0.04
2023-01-13T01:19:58.783Z,0.04
2023-01-13T01:24:59.015Z,0.04
2023-01-13T01:29:58.493Z,0.04
2023-01-13T01:34:57.180Z,0.04
2023-01-13T01:44:56.189Z,0.04
2023-01-13T01:49:54.865Z,0.04
2023-01-13T01:54:54.767Z,0.04
2023-01-13T01:59:15.099Z,0.04
2023-01-13T02:04:14.878Z,0.04
2023-01-13T02:09:14.963Z,0.04
2023-01-13T02:14:14.724Z,0.04
2023-01-13T02:19:14.447Z,0.04
2023-01-13T02:24:14.241Z,0.04
2023-01-13T02:29:15.091Z,0.04
2023-01-13T02:34:11.410Z,0.04
2023-01-13T02:44:10.198Z,0.04
2023-01-13T02:49:09.986Z,0.04
2023-01-13T02:54:07.296Z,0.04
2023-01-13T02:58:36.436Z,0.04
2023-01-13T03:03:35.986Z,0.04
2023-01-13T03:08:37.588Z,0.04
2023-01-13T03:13:34.542Z,0.04
2023-01-13T03:18:34.430Z,0.04
2023-01-13T03:23:37.116Z,0.04
2023-01-13T03:28:33.311Z,0.04
2023-01-13T03:33:35.201Z,0.04
2023-01-13T03:38:21.449Z,0.04
2023-01-13T03:43:22.019Z,0.04
2023-01-13T03:48:21.031Z,0.04
2023-01-13T03:53:20.610Z,0.04
2023-01-13T03:58:18.200Z,0.04
2023-01-13T03:59:38.962Z,0.04
2023-01-13T04:04:39.192Z,0.04
2023-01-13T04:09:38.542Z,0.04
2023-01-13T04:14:37.925Z,0.04
2023-01-13T04:19:37.184Z,0.04
2023-01-13T04:24:37.448Z,0.04
2023-01-13T04:29:36.673Z,0.04
2023-01-13T04:34:38.188Z,0.04
2023-01-13T04:39:34.403Z,0.04
2023-01-13T04:44:34.678Z,0.04
2023-01-13T04:49:33.507Z,0.04
2023-01-13T04:54:33.194Z,0.04
2023-01-13T04:59:16.273Z,0.04
2023-01-13T05:04:16.387Z,0.04
2023-01-13T05:09:16.139Z,0.04
2023-01-13T05:14:13.655Z,0.04
2023-01-13T05:19:14.060Z,0.04
2023-01-13T05:24:13.631Z,0.04
2023-01-13T05:29:14.304Z,0.04
2023-01-13T05:34:10.740Z,0.04
2023-01-13T05:39:11.338Z,0.04
2023-01-13T05:44:10.169Z,0.04
2023-01-13T05:49:09.696Z,0.04
2023-01-13T05:54:07.018Z,0.04
2023-01-13T05:58:55.831Z,0.04
2023-01-13T06:03:56.486Z,0.04
2023-01-13T06:08:55.734Z,0.04
2023-01-13T06:13:55.198Z,0.04
2023-01-13T06:18:55.177Z,0.04
2023-01-13T06:23:55.114Z,0.04
2023-01-13T06:28:54.319Z,0.04
2023-01-13T06:33:52.504Z,0.04
2023-01-13T06:38:52.037Z,0.04
2023-01-13T06:43:52.056Z,0.04
2023-01-13T06:48:51.590Z,0.05
2023-01-13T06:53:50.875Z,0.05
2023-01-13T06:58:50.164Z,0.06
2023-01-13T07:03:49.711Z,0.06
2023-01-13T07:08:48.828Z,0.08
2023-01-13T07:13:48.687Z,0.11
2023-01-13T07:18:48.522Z,0.2
2023-01-13T07:23:48.049Z,0.21
2023-01-13T07:28:49.195Z,0.22
2023-01-13T07:33:54.172Z,0.28
2023-01-13T07:38:44.396Z,0.27
2023-01-13T07:43:45.789Z,0.13
2023-01-13T07:48:43.749Z,0.27
2023-01-13T07:53:44.152Z,0.3
2023-01-13T07:58:44.908Z,0.42
2023-01-13T08:00:05.529Z,0.4
2023-01-13T08:05:05.669Z,0.41
2023-01-13T08:10:06.055Z,0.47
2023-01-13T08:15:04.758Z,0.82
2023-01-13T08:20:02.910Z,1
2023-01-13T08:25:01.812Z,0.82
2023-01-13T08:30:02.127Z,1.15
2023-01-13T08:35:01.970Z,1.25
2023-01-13T08:39:59.884Z,1.57
2023-01-13T08:45:00.161Z,1.49
2023-01-13T08:50:00.885Z,1.44
2023-01-13T08:54:59.986Z,2.1
2023-01-13T08:59:20.040Z,2.23
2023-01-13T09:04:21.073Z,1.73
2023-01-13T09:09:19.360Z,1.67
2023-01-13T09:14:17.569Z,1.55
2023-01-13T09:19:17.056Z,2.37
2023-01-13T09:24:17.382Z,2.61
2023-01-13T09:29:16.891Z,2.81
2023-01-13T09:34:16.276Z,2.79
2023-01-13T09:39:16.021Z,3.18
2023-01-13T09:44:15.874Z,3.29
2023-01-13T09:49:15.328Z,4.82
2023-01-13T09:54:16.783Z,5.02
2023-01-13T09:59:02.276Z,4.53
2023-01-13T10:04:02.423Z,5.41
2023-01-13T10:09:01.588Z,4.27
2023-01-13T10:14:02.027Z,2.82
2023-01-13T10:18:59.342Z,2.51
2023-01-13T10:23:59.162Z,2.46
2023-01-13T10:28:59.446Z,2.41
2023-01-13T10:34:00.832Z,2.16
2023-01-13T10:38:59.791Z,2.77
2023-01-13T10:43:58.423Z,3.82
2023-01-13T10:48:59.413Z,4.72
2023-01-13T10:53:55.599Z,5.06
2023-01-13T10:58:55.587Z,5.83
2023-01-13T11:03:55.223Z,6.66
2023-01-13T11:08:55.408Z,6.44
2023-01-13T11:13:53.869Z,5.65
2023-01-13T11:18:52.132Z,4.8
2023-01-13T11:23:52.213Z,5.49
2023-01-13T11:28:51.966Z,5.97
2023-01-13T11:33:51.541Z,5.56
2023-01-13T11:38:50.622Z,3.74
2023-01-13T11:43:50.963Z,3.96
2023-01-13T11:48:50.170Z,2.36
2023-01-13T11:53:51.697Z,1.43
2023-01-13T11:58:53.025Z,1.28
2023-01-13T12:03:47.413Z,5.87
2023-01-13T12:08:46.874Z,5.89
2023-01-13T12:13:46.881Z,5.72
2023-01-13T12:18:45.040Z,6.19
2023-01-13T12:23:44.737Z,7.96
2023-01-13T12:28:46.426Z,8.28
2023-01-13T12:33:43.896Z,7.88
2023-01-13T12:38:44.183Z,6.13
2023-01-13T12:43:44.643Z,5.13
2023-01-13T12:48:43.983Z,4.9
2023-01-13T12:53:43.258Z,5.5
2023-01-13T12:58:31.659Z,4.92
2023-01-13T13:03:31.765Z,3.64
2023-01-13T13:08:30.595Z,4.32
2023-01-13T13:13:31.899Z,3.66
2023-01-13T13:18:38.438Z,5.75
2023-01-13T13:23:37.745Z,5.14
2023-01-13T13:28:38.846Z,4.86
2023-01-13T13:33:36.592Z,4.85
2023-01-13T13:38:35.594Z,5.74
2023-01-13T13:43:36.082Z,5.47
2023-01-13T13:48:35.505Z,5.14
2023-01-13T13:53:34.759Z,4.07
2023-01-13T13:58:35.036Z,1.17
2023-01-13T13:59:56.819Z,0.96
2023-01-13T14:04:56.882Z,1.76
2023-01-13T14:09:55.638Z,2.97
2023-01-13T14:14:54.236Z,2.72
2023-01-13T14:19:53.923Z,3.34
2023-01-13T14:24:53.979Z,3.35
2023-01-13T14:34:53.532Z,2.78
2023-01-13T14:39:52.978Z,2.57
2023-01-13T14:44:54.392Z,2.37
2023-01-13T14:49:52.696Z,2.18
2023-01-13T14:54:53.480Z,1.98
2023-01-13T14:58:54.170Z,1.82
2023-01-13T15:03:54.129Z,1.61
2023-01-13T15:08:53.133Z,1.22
2023-01-13T15:13:55.886Z,0.98
2023-01-13T15:18:51.782Z,0.61
2023-01-13T15:23:51.096Z,0.67
2023-01-13T15:28:50.047Z,0.71
2023-01-13T15:33:51.519Z,0.63
2023-01-13T15:38:47.425Z,0.5
2023-01-13T15:43:47.587Z,0.38
2023-01-13T15:48:55.411Z,0.28
2023-01-13T15:53:46.298Z,0.26
2023-01-13T15:58:45.419Z,0.19
2023-01-13T16:03:45.183Z,0.13
2023-01-13T16:08:45.375Z,0.09
2023-01-13T16:13:42.625Z,0.06
2023-01-13T16:18:42.980Z,0.05
2023-01-13T16:23:42.937Z,0.05
2023-01-13T16:28:42.594Z,0.05
2023-01-13T16:33:41.510Z,0.04
2023-01-13T16:38:42.146Z,0.04
2023-01-13T16:43:41.133Z,0.04
2023-01-13T16:48:41.891Z,0.04
2023-01-13T16:53:38.795Z,0.04
2023-01-13T16:58:38.778Z,0.04
2023-01-13T17:00:00.019Z,0.04
2023-01-13T17:04:59.823Z,0.04
2023-01-13T17:09:58.930Z,0.04
2023-01-13T17:14:58.729Z,0.04
2023-01-13T17:19:58.708Z,0.04
2023-01-13T17:24:57.933Z,0.04
2023-01-13T17:29:59.102Z,0.04
2023-01-13T17:34:55.615Z,0.04
2023-01-13T17:39:55.506Z,0.04
2023-01-13T17:44:56.039Z,0.04
2023-01-13T17:49:54.769Z,0.04
2023-01-13T17:54:54.567Z,0.04
2023-01-13T17:59:15.054Z,0.04
2023-01-13T18:04:14.769Z,0.04
2023-01-13T18:09:12.394Z,0.04
2023-01-13T18:14:12.845Z,0.04
2023-01-13T18:19:12.227Z,0.04
2023-01-13T18:24:13.404Z,0.04
2023-01-13T18:29:09.043Z,0.04
2023-01-13T18:34:09.090Z,0.04
2023-01-13T18:39:08.572Z,0.04
2023-01-13T18:44:08.523Z,0.04
2023-01-13T18:49:05.773Z,0.04
2023-01-13T18:54:06.138Z,0.04
2023-01-13T18:59:02.562Z,0.04
2023-01-13T19:04:02.107Z,0.04
2023-01-13T19:09:00.402Z,0.04
2023-01-13T19:13:59.804Z,0.04
2023-01-13T19:18:59.927Z,0.04
2023-01-13T19:23:59.505Z,0.04
2023-01-13T19:28:57.877Z,0.04
2023-01-13T19:33:57.767Z,0.04
2023-01-13T19:38:58.062Z,0.04
2023-01-13T19:43:56.048Z,0.04
2023-01-13T19:48:55.760Z,0.04
2023-01-13T19:53:55.893Z,0.04
2023-01-13T19:58:55.216Z,0.04
2023-01-13T20:03:55.013Z,0.04
2023-01-13T20:08:54.740Z,0.04
2023-01-13T20:13:54.868Z,0.04
2023-01-13T20:18:54.079Z,0.04
2023-01-13T20:23:55.127Z,0.04
2023-01-13T20:28:51.259Z,0.04
2023-01-13T20:33:52.136Z,0.04
2023-01-13T20:38:50.538Z,0.04
2023-01-13T20:43:50.933Z,0.04
2023-01-13T20:48:47.922Z,0.04
2023-01-13T20:53:47.709Z,0.04
2023-01-13T20:58:47.825Z,0.04
2023-01-13T21:03:48.050Z,0.04
2023-01-13T21:08:46.836Z,0.04
2023-01-13T21:13:46.714Z,0.04
2023-01-13T21:18:46.845Z,0.04
2023-01-13T21:23:46.903Z,0.04
2023-01-13T21:28:45.198Z,0.04
2023-01-13T21:33:45.453Z,0.04
2023-01-13T21:38:45.038Z,0.04
2023-01-13T21:43:46.380Z,0.04
2023-01-13T21:48:42.983Z,0.04
2023-01-13T21:53:42.528Z,0.04
2023-01-13T21:58:32.408Z,0.04
2023-01-13T22:03:32.444Z,0.04
2023-01-13T22:08:29.066Z,0.04
2023-01-13T22:13:39.474Z,0.04
2023-01-13T22:18:39.084Z,0.04
2023-01-13T22:23:40.564Z,0.04
2023-01-13T22:28:37.468Z,0.04
2023-01-13T22:33:37.403Z,0.04
2023-01-13T22:38:38.684Z,0.04
2023-01-13T22:43:35.694Z,0.04
2023-01-13T22:48:35.908Z,0.04
2023-01-13T22:53:36.007Z,0.04
2023-01-13T22:58:33.881Z,0.04
2023-01-13T23:03:34.651Z,0.04
2023-01-13T23:08:20.721Z,0.04
2023-01-13T23:13:21.516Z,0.04
2023-01-13T23:18:20.540Z,0.04
2023-01-13T23:23:19.941Z,0.04
2023-01-13T23:28:19.487Z,0.04
2023-01-13T23:33:19.716Z,0.04
2023-01-13T23:38:18.980Z,0.04
2023-01-13T23:43:20.444Z,0.04
2023-01-13T23:48:17.679Z,0.04
2023-01-13T23:53:16.783Z,0.04
2023-01-13T23:58:15.876Z,0.04
2023-01-13T23:59:38.033Z,0.04
